createdAt,value
2024-04-19T00:01:59.350Z,99824.38
2024-04-19T00:04:29.134Z,99825.28
2024-04-19T00:06:56.869Z,99815.09
2024-04-19T00:09:27.061Z,99819.28
2024-04-19T00:11:54.250Z,99807.38
2024-04-19T00:14:26.566Z,99820.06
2024-04-19T00:16:53.771Z,99811.59
2024-04-19T00:19:23.635Z,99811.53
2024-04-19T00:21:50.812Z,99809.84
2024-04-19T00:24:20.591Z,99807.22
2024-04-19T00:26:47.697Z,99810.59
2024-04-19T00:29:17.575Z,99806.31
2024-04-19T00:31:47.342Z,99807.09
2024-04-19T00:34:17.157Z,99810.47
2024-04-19T00:36:44.260Z,99808.78
2024-04-19T00:39:14.010Z,99807.88
2024-04-19T00:41:41.146Z,99805.31
2024-04-19T00:44:10.849Z,99798.47
2024-04-19T00:46:38.431Z,99806.94
2024-04-19T00:49:11.447Z,99801.81
2024-04-19T00:51:39.570Z,99811.13
2024-04-19T00:54:09.501Z,99804.38
2024-04-19T00:56:37.087Z,99810.31
2024-04-19T00:59:06.913Z,99806.88
2024-04-19T01:01:35.801Z,99794.91
2024-04-19T01:04:05.655Z,99802.66
2024-04-19T01:06:35.475Z,99798.31
2024-04-19T01:09:07.736Z,99810.22
2024-04-19T01:11:35.125Z,99796.59
2024-04-19T01:14:04.831Z,99800.91
2024-04-19T01:16:31.994Z,99796.66
2024-04-19T01:19:02.027Z,99796.66
2024-04-19T01:21:30.126Z,99786.50
2024-04-19T01:24:07.957Z,99791.53
2024-04-19T01:26:37.705Z,99792.34
2024-04-19T01:29:07.444Z,99778.75
2024-04-19T01:31:34.572Z,99787.22
2024-04-19T01:34:04.376Z,99790.59
2024-04-19T01:36:31.569Z,99784.66
2024-04-19T01:39:01.343Z,99784.59
2024-04-19T01:41:28.504Z,99789.69
2024-04-19T01:44:00.810Z,99781.16
2024-04-19T01:46:27.908Z,99783.75
2024-04-19T01:48:57.803Z,99787.13
2024-04-19T01:51:24.974Z,99782.91
2024-04-19T01:53:54.724Z,99785.44
2024-04-19T01:56:21.886Z,99778.66
2024-04-19T01:58:51.643Z,99774.28
2024-04-19T02:01:22.673Z,99784.56
2024-04-19T02:03:52.602Z,99781.19
2024-04-19T02:06:19.882Z,99783.69
2024-04-19T02:08:49.705Z,99787.06
2024-04-19T02:11:16.897Z,99782.78
2024-04-19T02:13:46.735Z,99789.53
2024-04-19T02:16:13.946Z,99772.56
2024-04-19T02:18:46.505Z,99776.78
2024-04-19T02:21:13.579Z,99779.31
2024-04-19T02:23:46.830Z,99775.88
2024-04-19T02:26:13.965Z,99769.09
2024-04-19T02:29:00.334Z,99774.16
2024-04-19T02:31:30.145Z,99769.06
2024-04-19T02:34:02.592Z,99771.66
2024-04-19T02:36:32.370Z,99767.44
2024-04-19T02:39:02.164Z,99759.72
2024-04-19T02:41:31.930Z,99760.59
2024-04-19T02:44:01.726Z,99774.16
2024-04-19T02:46:31.642Z,99766.47
2024-04-19T02:49:04.035Z,99759.69
2024-04-19T02:51:33.875Z,99761.31
2024-04-19T02:54:04.122Z,99762.13
2024-04-19T02:56:33.839Z,99760.41
2024-04-19T02:59:03.658Z,99756.16
2024-04-19T03:01:30.762Z,99746.78
2024-04-19T03:04:03.620Z,99758.63
2024-04-19T03:06:33.354Z,99760.25
2024-04-19T03:09:05.438Z,99745.78
2024-04-19T03:11:35.135Z,99741.50
2024-04-19T03:14:04.818Z,99744.88
2024-04-19T03:16:34.522Z,99741.44
2024-04-19T03:19:07.890Z,99737.19
2024-04-19T03:21:39.223Z,99735.50
2024-04-19T03:24:09.381Z,99729.56
2024-04-19T03:26:39.126Z,99724.44
2024-04-19T03:29:08.854Z,99727.03
2024-04-19T03:31:38.681Z,99725.28
2024-04-19T03:34:11.010Z,99722.66
2024-04-19T03:36:41.148Z,99728.59
2024-04-19T03:39:10.955Z,99721.69
2024-04-19T03:41:41.912Z,99724.16
2024-04-19T03:44:27.483Z,99711.44
2024-04-19T03:46:57.296Z,99718.16
2024-04-19T03:49:29.680Z,99707.97
2024-04-19T03:51:59.364Z,99713.06
2024-04-19T03:54:29.100Z,99714.00
2024-04-19T03:56:59.030Z,99706.47
2024-04-19T03:59:28.793Z,99710.75
2024-04-19T04:01:58.527Z,99710.81
2024-04-19T04:04:30.993Z,99708.38
2024-04-19T04:07:02.375Z,99710.13
2024-04-19T04:09:32.109Z,99713.66
2024-04-19T04:12:01.893Z,99711.22
2024-04-19T04:14:31.621Z,99712.22
2024-04-19T04:17:01.307Z,99720.03
2024-04-19T04:19:33.718Z,99705.75
2024-04-19T04:22:03.509Z,99715.22
2024-04-19T04:24:33.284Z,99702.75
2024-04-19T04:27:03.062Z,99702.19
2024-04-19T04:29:32.875Z,99700.66
2024-04-19T04:32:02.769Z,99708.47
2024-04-19T04:34:35.485Z,99711.84
2024-04-19T04:37:05.244Z,99705.91
2024-04-19T04:39:35.022Z,99699.91
2024-04-19T04:42:04.797Z,99699.69
2024-04-19T04:44:34.665Z,99695.34
2024-04-19T04:47:04.908Z,99702.97
2024-04-19T04:49:37.320Z,99708.91
2024-04-19T04:52:07.293Z,99708.97
2024-04-19T04:54:37.078Z,99697.03
2024-04-19T04:57:09.385Z,99691.09
2024-04-19T04:59:39.601Z,99697.84
2024-04-19T05:02:09.373Z,99693.03
2024-04-19T05:04:42.030Z,99690.91
2024-04-19T05:07:11.963Z,99688.97
2024-04-19T05:09:41.706Z,99683.53
2024-04-19T05:12:11.905Z,99679.44
2024-04-19T05:14:41.697Z,99676.94
2024-04-19T05:17:11.480Z,99667.72
2024-04-19T05:19:43.940Z,99670.41
2024-04-19T05:22:13.820Z,99668.94
2024-04-19T05:24:43.819Z,99665.59
2024-04-19T05:27:13.548Z,99670.66
2024-04-19T05:29:43.352Z,99667.13
2024-04-19T05:32:13.165Z,99673.06
2024-04-19T05:34:45.902Z,99677.28
2024-04-19T05:37:15.616Z,99669.56
2024-04-19T05:39:45.521Z,99672.09
2024-04-19T05:42:15.525Z,99671.25
2024-04-19T05:44:45.373Z,99672.16
2024-04-19T05:47:15.305Z,99661.13
2024-04-19T05:49:47.766Z,99666.25
2024-04-19T05:52:17.601Z,99655.97
2024-04-19T05:54:47.512Z,99655.88
2024-04-19T05:57:17.321Z,99652.38
2024-04-19T05:59:47.224Z,99646.44
2024-04-19T06:02:16.957Z,99651.53
2024-04-19T06:04:49.383Z,99645.50
2024-04-19T06:07:22.632Z,99637.84
2024-04-19T06:09:52.507Z,99642.09
2024-04-19T06:12:22.241Z,99636.25
2024-04-19T06:14:52.079Z,99633.91
2024-04-19T06:17:21.817Z,99629.06
2024-04-19T06:19:54.192Z,99634.25
2024-04-19T06:22:23.954Z,99629.13
2024-04-19T06:24:53.782Z,99625.75
2024-04-19T06:27:23.623Z,99627.44
2024-04-19T06:29:53.834Z,99628.31
2024-04-19T06:32:23.586Z,99630.09
2024-04-19T06:34:56.084Z,99619.06
2024-04-19T06:37:25.999Z,99607.22
2024-04-19T06:40:05.150Z,99608.88
2024-04-19T06:42:37.657Z,99599.53
2024-04-19T06:45:08.270Z,99599.56
2024-04-19T06:47:38.112Z,99594.41
2024-04-19T06:50:10.979Z,99602.03
2024-04-19T06:52:40.718Z,99593.50
2024-04-19T06:55:11.802Z,99597.78
2024-04-19T06:57:41.623Z,99588.38
2024-04-19T07:00:22.193Z,99595.22
2024-04-19T07:03:03.946Z,99595.22
2024-04-19T07:05:37.366Z,99585.84
2024-04-19T07:08:08.280Z,99586.72
2024-04-19T07:10:41.366Z,99576.50
2024-04-19T07:13:11.364Z,99570.53
2024-04-19T07:15:41.177Z,99555.22
2024-04-19T07:18:11.018Z,99566.28
2024-04-19T07:20:43.374Z,99567.13
2024-04-19T07:23:19.174Z,99557.72
2024-04-19T07:25:49.146Z,99561.97
2024-04-19T07:28:19.041Z,99549.16
2024-04-19T07:30:48.974Z,99546.59
2024-04-19T07:33:18.846Z,99547.44
2024-04-19T07:35:51.495Z,99543.19
2024-04-19T07:38:21.227Z,99544.03
2024-04-19T07:40:50.958Z,99551.72
2024-04-19T07:43:20.738Z,99540.63
2024-04-19T07:45:50.645Z,99535.41
2024-04-19T07:48:21.059Z,99532.47
2024-04-19T07:50:53.657Z,99530.38
2024-04-19T07:53:24.367Z,99533.09
2024-04-19T07:55:54.118Z,99521.94
2024-04-19T07:58:25.057Z,99518.22
2024-04-19T08:00:55.399Z,99516.44
2024-04-19T08:03:26.100Z,99506.06
2024-04-19T08:05:58.633Z,99512.66
2024-04-19T08:08:28.358Z,99528.09
2024-04-19T08:10:58.229Z,99536.00
2024-04-19T08:13:27.980Z,99525.50
2024-04-19T08:15:57.879Z,99528.41
2024-04-19T08:18:28.250Z,99527.41
2024-04-19T08:21:00.625Z,99527.56
2024-04-19T08:23:30.610Z,99516.22
2024-04-19T08:26:00.363Z,99515.00
2024-04-19T08:28:30.108Z,99522.22
2024-04-19T08:31:00.196Z,99509.41
2024-04-19T08:33:30.125Z,99520.16
2024-04-19T08:36:02.742Z,99505.63
2024-04-19T08:38:32.576Z,99495.47
2024-04-19T08:41:05.938Z,99499.75
2024-04-19T08:43:37.092Z,99506.84
2024-04-19T08:46:08.751Z,99512.03
2024-04-19T08:48:40.735Z,99506.22
2024-04-19T08:51:20.354Z,99503.09
2024-04-19T08:53:58.029Z,99499.78
2024-04-19T08:56:29.317Z,99501.53
2024-04-19T08:58:59.530Z,99504.78
2024-04-19T09:01:29.435Z,99490.44
2024-04-19T09:03:59.310Z,99487.13
2024-04-19T09:06:32.268Z,99487.03
2024-04-19T09:09:02.532Z,99502.63
2024-04-19T09:11:32.461Z,99488.44
2024-04-19T09:14:02.192Z,99490.31
2024-04-19T09:16:35.116Z,99484.06
2024-04-19T09:19:04.894Z,99483.94
2024-04-19T09:21:37.390Z,99481.03
2024-04-19T09:24:10.385Z,99487.28
2024-04-19T09:26:40.212Z,99486.69
2024-04-19T09:29:10.041Z,99491.94
2024-04-19T09:31:41.514Z,99482.59
2024-04-19T09:34:11.831Z,99491.03
2024-04-19T09:36:51.409Z,99475.28
2024-04-19T09:39:21.586Z,99467.50
2024-04-19T09:41:52.443Z,99460.56
2024-04-19T09:44:27.435Z,99458.19
2024-04-19T09:47:05.604Z,99461.16
2024-04-19T09:49:36.620Z,99456.56
2024-04-19T09:52:16.255Z,99451.53
2024-04-19T09:54:49.370Z,99456.06
2024-04-19T09:57:23.230Z,99447.28
2024-04-19T09:59:53.861Z,99444.44
2024-04-19T10:02:31.474Z,99433.72
2024-04-19T10:05:07.286Z,99427.53
2024-04-19T10:07:41.208Z,99434.91
2024-04-19T10:10:11.180Z,99427.63
2024-04-19T10:12:43.218Z,99421.94
2024-04-19T10:15:14.395Z,99418.50
2024-04-19T10:17:44.338Z,99406.19
2024-04-19T10:20:15.115Z,99403.94
2024-04-19T10:22:47.526Z,99389.72
2024-04-19T10:25:14.645Z,99389.75
2024-04-19T10:27:44.573Z,99388.97
2024-04-19T10:30:22.239Z,99402.72
2024-04-19T10:33:01.912Z,99384.13
2024-04-19T10:35:31.824Z,99380.66
2024-04-19T10:38:04.319Z,99370.84
2024-04-19T10:40:34.105Z,99366.44
2024-04-19T10:43:07.957Z,99376.22
2024-04-19T10:45:38.758Z,99373.81
2024-04-19T10:48:10.012Z,99373.34
2024-04-19T10:50:40.660Z,99347.81
2024-04-19T10:53:15.145Z,99361.63
2024-04-19T10:55:46.255Z,99363.41
2024-04-19T10:58:16.384Z,99339.59
2024-04-19T11:00:48.322Z,99365.44
2024-04-19T11:03:20.517Z,99359.47
2024-04-19T11:05:51.143Z,99351.53
2024-04-19T11:08:26.013Z,99352.44
2024-04-19T11:10:57.320Z,99342.31
2024-04-19T11:13:27.116Z,99333.03
2024-04-19T11:15:58.825Z,99327.25
2024-04-19T11:18:30.064Z,99324.44
2024-04-19T11:21:07.876Z,99324.44
2024-04-19T11:23:44.256Z,99316.00
2024-04-19T11:26:14.244Z,99325.41
2024-04-19T11:28:49.128Z,99313.75
2024-04-19T11:31:19.234Z,99308.72
2024-04-19T11:33:49.129Z,99315.19
2024-04-19T11:36:19.047Z,99325.66
2024-04-19T11:38:54.031Z,99317.91
2024-04-19T11:41:23.852Z,99315.75
2024-04-19T11:43:54.010Z,99315.41
2024-04-19T11:46:25.048Z,99302.81
2024-04-19T11:48:54.994Z,99304.69
2024-04-19T11:51:24.841Z,99297.03
2024-04-19T11:53:57.300Z,99293.91
2024-04-19T11:56:27.258Z,99306.31
2024-04-19T11:58:57.145Z,99297.91
2024-04-19T12:01:27.241Z,99295.31
2024-04-19T12:03:57.796Z,99298.78
2024-04-19T12:06:27.779Z,99298.97
2024-04-19T12:09:00.327Z,99291.91
2024-04-19T12:11:30.157Z,99292.47
2024-04-19T12:14:50.709Z,99295.91
2024-04-19T12:16:55.472Z,99278.50
2024-04-19T12:19:30.551Z,99282.34
2024-04-19T12:22:01.559Z,99303.56
2024-04-19T12:24:37.075Z,99294.94
2024-04-19T12:27:08.565Z,99293.97
2024-04-19T12:29:38.668Z,99281.94
2024-04-19T12:32:10.319Z,99268.22
2024-04-19T12:34:42.464Z,99280.66
2024-04-19T12:37:12.192Z,99284.97
2024-04-19T12:39:44.660Z,99282.00
2024-04-19T12:42:14.654Z,99287.25
2024-04-19T12:44:49.379Z,99290.94
2024-04-19T12:47:20.482Z,99290.31
2024-04-19T12:49:50.246Z,99303.63
2024-04-19T12:52:20.054Z,99301.50
2024-04-19T12:54:52.529Z,99302.09
2024-04-19T12:57:23.113Z,99294.38
2024-04-19T12:59:52.918Z,99299.03
2024-04-19T13:02:22.801Z,99294.88
2024-04-19T13:04:52.630Z,99283.47
2024-04-19T13:07:22.323Z,99273.13
2024-04-19T13:09:57.120Z,99282.28
2024-04-19T13:12:27.512Z,99284.81
2024-04-19T13:14:57.296Z,99276.53
2024-04-19T13:17:27.621Z,99269.91
2024-04-19T13:19:57.762Z,99278.25
2024-04-19T13:22:27.810Z,99276.94
2024-04-19T13:25:00.379Z,99268.78
2024-04-19T13:27:30.700Z,99277.09
2024-04-19T13:30:00.662Z,99268.59
2024-04-19T13:32:30.554Z,99272.19
2024-04-19T13:35:00.441Z,99262.28
2024-04-19T13:37:30.345Z,99267.75
2024-04-19T13:40:02.829Z,99273.13
2024-04-19T13:42:32.741Z,99272.47
2024-04-19T13:45:02.530Z,99268.47
2024-04-19T13:47:32.571Z,99271.09
2024-04-19T13:50:06.454Z,99253.75
2024-04-19T13:52:36.328Z,99251.06
2024-04-19T13:55:09.974Z,99259.34
2024-04-19T13:57:39.926Z,99249.47
2024-04-19T14:00:12.925Z,99258.69
2024-04-19T14:02:42.746Z,99257.13
2024-04-19T14:05:12.665Z,99254.66
2024-04-19T14:07:42.434Z,99249.50
2024-04-19T14:10:14.897Z,99243.59
2024-04-19T14:12:44.732Z,99247.78
2024-04-19T14:15:14.580Z,99248.56
2024-04-19T14:17:44.359Z,99243.22
2024-04-19T14:20:14.205Z,99242.38
2024-04-19T14:22:44.062Z,99245.91
2024-04-19T14:25:16.633Z,99249.41
2024-04-19T14:27:48.116Z,99242.00
2024-04-19T14:30:18.209Z,99247.47
2024-04-19T14:32:47.963Z,99253.03
2024-04-19T14:35:17.855Z,99256.81
2024-04-19T14:37:47.530Z,99250.97
2024-04-19T14:40:19.993Z,99258.78
2024-04-19T14:42:50.698Z,99258.13
2024-04-19T14:45:20.634Z,99258.38
2024-04-19T14:47:50.433Z,99272.38
2024-04-19T14:50:20.447Z,99267.78
2024-04-19T14:52:56.557Z,99263.06
2024-04-19T14:55:36.743Z,99271.09
2024-04-19T14:58:06.772Z,99276.41
2024-04-19T15:00:37.268Z,99281.72
2024-04-19T15:03:07.647Z,99295.44
2024-04-19T15:05:37.470Z,99302.38
2024-04-19T15:08:10.231Z,99314.56
2024-04-19T15:10:42.830Z,99326.00
2024-04-19T15:13:12.629Z,99334.88
2024-04-19T15:15:42.538Z,99337.00
2024-04-19T15:18:12.384Z,99350.94
2024-04-19T15:20:42.161Z,99340.91
2024-04-19T15:23:12.208Z,99343.56
2024-04-19T15:25:44.809Z,99343.59
2024-04-19T15:28:14.578Z,99333.41
2024-04-19T15:30:44.656Z,99344.50
2024-04-19T15:33:14.543Z,99342.00
2024-04-19T15:35:46.018Z,99337.78
2024-04-19T15:38:15.878Z,99336.97
2024-04-19T15:40:48.659Z,99331.88
2024-04-19T15:43:20.424Z,99336.97
2024-04-19T15:45:51.139Z,99331.00
2024-04-19T15:48:21.063Z,99320.78
2024-04-19T15:50:51.665Z,99325.84
2024-04-19T15:53:22.997Z,99320.72
2024-04-19T15:55:56.742Z,99312.22
2024-04-19T15:58:27.380Z,99310.53
2024-04-19T16:00:57.185Z,99296.91
2024-04-19T16:03:27.357Z,99299.47
2024-04-19T16:05:57.298Z,99287.50
2024-04-19T16:08:27.290Z,99293.41
2024-04-19T16:10:59.694Z,99289.09
2024-04-19T16:13:29.653Z,99279.69
2024-04-19T16:16:05.696Z,99280.47
2024-04-19T16:18:35.606Z,99284.66
2024-04-19T16:21:05.426Z,99269.25
2024-04-19T16:23:35.434Z,99270.13
2024-04-19T16:26:07.977Z,99266.72
2024-04-19T16:28:37.718Z,99264.19
2024-04-19T16:31:07.914Z,99259.91
2024-04-19T16:33:37.919Z,99255.66
2024-04-19T16:36:09.005Z,99256.56
2024-04-19T16:38:38.797Z,99246.34
2024-04-19T16:41:11.327Z,99246.28
2024-04-19T16:43:41.189Z,99248.84
2024-04-19T16:46:12.115Z,99247.97
2024-04-19T16:48:42.104Z,99242.84
2024-04-19T16:51:12.067Z,99250.50
2024-04-19T16:53:41.926Z,99248.81
2024-04-19T16:56:14.382Z,99247.13
2024-04-19T16:58:45.516Z,99254.84
2024-04-19T17:01:15.727Z,99240.38
2024-04-19T17:03:45.733Z,99243.84
2024-04-19T17:06:15.562Z,99243.84
2024-04-19T17:08:45.338Z,99239.59
2024-04-19T17:11:19.305Z,99243.00
2024-04-19T17:13:49.374Z,99236.19
2024-04-19T17:16:19.360Z,99239.59
2024-04-19T17:18:51.821Z,99237.88
2024-04-19T17:21:21.599Z,99234.44
2024-04-19T17:23:51.523Z,99232.75
2024-04-19T17:26:24.139Z,99226.78
2024-04-19T17:28:55.303Z,99229.31
2024-04-19T17:31:25.181Z,99231.06
2024-04-19T17:33:55.248Z,99240.38
2024-04-19T17:36:26.409Z,99243.84
2024-04-19T17:38:56.297Z,99241.28
2024-04-19T17:41:29.166Z,99235.38
2024-04-19T17:43:59.270Z,99240.53
2024-04-19T17:46:30.016Z,99241.38
2024-04-19T17:48:59.952Z,99240.53
2024-04-19T17:51:29.993Z,99234.59
2024-04-19T17:53:59.854Z,99240.59
2024-04-19T17:56:32.499Z,99243.13
2024-04-19T17:59:03.164Z,99232.91
2024-04-19T18:01:33.095Z,99231.22
2024-04-19T18:04:03.512Z,99241.41
2024-04-19T18:06:33.683Z,99238.88
2024-04-19T18:09:03.452Z,99233.78
2024-04-19T18:11:36.070Z,99239.75
2024-04-19T18:14:06.064Z,99236.38
2024-04-19T18:16:36.351Z,99203.22
2024-04-19T18:19:07.482Z,99235.50
2024-04-19T18:21:37.475Z,99237.22
2024-04-19T18:24:10.598Z,99236.34
2024-04-19T18:26:43.249Z,99235.53
2024-04-19T18:29:13.024Z,99239.78
2024-04-19T18:31:42.768Z,99237.22
2024-04-19T18:34:17.237Z,99238.91
2024-04-19T18:36:48.470Z,99230.38
2024-04-19T18:39:18.745Z,99233.78
2024-04-19T18:41:51.410Z,99232.94
2024-04-19T18:44:21.119Z,99229.50
2024-04-19T18:46:50.837Z,99229.44
2024-04-19T18:49:21.280Z,99237.09
2024-04-19T18:51:51.114Z,99230.25
2024-04-19T18:54:20.869Z,99233.66
2024-04-19T18:56:53.407Z,99234.56
2024-04-19T18:59:26.481Z,99236.25
2024-04-19T19:01:56.419Z,99229.47
2024-04-19T19:04:26.176Z,99231.13
2024-04-19T19:06:56.151Z,99234.56
2024-04-19T19:09:26.365Z,99226.00
2024-04-19T19:12:00.863Z,99232.81
2024-04-19T19:14:34.093Z,99227.69
2024-04-19T19:17:05.675Z,99225.13
2024-04-19T19:19:35.434Z,99220.91
2024-04-19T19:22:05.248Z,99216.63
2024-04-19T19:24:35.047Z,99213.22
2024-04-19T19:27:07.785Z,99217.44
2024-04-19T19:29:37.524Z,99215.72
2024-04-19T19:32:07.777Z,99202.06
2024-04-19T19:34:37.509Z,99199.50
2024-04-19T19:37:07.870Z,99199.53
2024-04-19T19:39:38.906Z,99214.88
2024-04-19T19:42:11.970Z,99203.75
2024-04-19T19:44:42.080Z,99202.06
2024-04-19T19:47:12.070Z,99205.47
2024-04-19T19:49:42.746Z,99202.91
2024-04-19T19:52:13.312Z,99196.97
2024-04-19T19:54:43.131Z,99198.69
2024-04-19T19:57:15.607Z,99197.88
2024-04-19T20:00:01.123Z,99193.59
2024-04-19T20:02:46.567Z,99190.19
2024-04-19T20:05:32.584Z,99197.00
2024-04-19T20:08:02.434Z,99191.03
2024-04-19T20:10:32.285Z,99191.94
2024-04-19T20:13:04.902Z,99200.50
2024-04-19T20:15:34.704Z,99192.84
2024-04-19T20:18:04.616Z,99191.16
2024-04-19T20:20:34.374Z,99190.34
2024-04-19T20:23:04.531Z,99189.53
2024-04-19T20:25:34.991Z,99183.63
2024-04-19T20:28:07.857Z,99184.47
2024-04-19T20:30:37.680Z,99182.81
2024-04-19T20:33:08.689Z,99180.28
2024-04-19T20:35:38.521Z,99182.00
2024-04-19T20:38:08.938Z,99191.38
2024-04-19T20:40:38.968Z,99188.00
2024-04-19T20:43:19.774Z,99194.84
2024-04-19T20:45:50.727Z,99195.72
2024-04-19T20:48:20.817Z,99197.47
2024-04-19T20:50:51.291Z,99195.78
2024-04-19T20:53:21.355Z,99187.28
2024-04-19T20:55:51.804Z,99188.13
2024-04-19T20:58:24.189Z,99194.94
2024-04-19T21:00:54.330Z,99187.28
2024-04-19T21:03:24.138Z,99184.69
2024-04-19T21:05:53.843Z,99176.19
2024-04-19T21:08:23.595Z,99183.84
2024-04-19T21:10:53.332Z,99182.16
2024-04-19T21:13:25.767Z,99175.31
2024-04-19T21:16:09.504Z,99186.38
2024-04-19T21:18:45.864Z,99168.47
2024-04-19T21:21:16.031Z,99178.69
2024-04-19T21:23:48.120Z,99179.53
2024-04-19T21:26:17.945Z,99164.22
2024-04-19T21:28:53.305Z,99171.88
2024-04-19T21:31:23.013Z,99175.28
2024-04-19T21:33:53.292Z,99169.31
2024-04-19T21:36:23.264Z,99167.63
2024-04-19T21:38:53.564Z,99168.47
2024-04-19T21:41:23.366Z,99173.59
2024-04-19T21:43:55.755Z,99177.84
2024-04-19T21:46:29.447Z,99171.03
2024-04-19T21:48:59.501Z,99171.00
2024-04-19T21:51:29.278Z,99170.16
2024-04-19T21:53:59.068Z,99155.66
2024-04-19T21:56:29.025Z,99161.63
2024-04-19T21:59:04.101Z,99163.31
2024-04-19T22:01:34.506Z,99161.63
2024-04-19T22:04:04.551Z,99167.59
2024-04-19T22:06:34.496Z,99163.31
2024-04-19T22:09:04.364Z,99155.72
2024-04-19T22:11:34.200Z,99158.28
2024-04-19T22:14:06.537Z,99152.31
2024-04-19T22:16:36.333Z,99158.28
2024-04-19T22:19:06.181Z,99153.13
2024-04-19T22:21:37.236Z,99156.53
2024-04-19T22:24:07.504Z,99154.84
2024-04-19T22:26:37.833Z,99152.28
2024-04-19T22:29:10.227Z,99154.78
2024-04-19T22:31:41.183Z,99151.38
2024-04-19T22:34:11.230Z,99151.34
2024-04-19T22:36:41.321Z,99150.50
2024-04-19T22:39:11.273Z,99150.53
2024-04-19T22:41:41.001Z,99151.38
2024-04-19T22:44:13.315Z,99148.03
2024-04-19T22:46:43.019Z,99145.50
2024-04-19T22:49:12.876Z,99141.28
2024-04-19T22:51:42.623Z,99142.97
2024-04-19T22:54:12.414Z,99144.59
2024-04-19T22:56:42.170Z,99148.84
2024-04-19T22:59:14.627Z,99141.16
2024-04-19T23:01:44.749Z,99139.44
2024-04-19T23:04:14.763Z,99132.56
2024-04-19T23:06:44.928Z,99133.44
2024-04-19T23:09:14.837Z,99130.03
2024-04-19T23:11:44.691Z,99136.84
2024-04-19T23:14:18.781Z,99138.53
2024-04-19T23:16:48.783Z,99143.63
2024-04-19T23:19:18.581Z,99130.84
2024-04-19T23:21:49.012Z,99129.16
2024-04-19T23:24:19.248Z,99128.31
2024-04-19T23:26:50.359Z,99124.91
2024-04-19T23:29:22.850Z,99134.25
2024-04-19T23:31:52.834Z,99112.16
2024-04-19T23:34:22.780Z,99122.31
2024-04-19T23:36:52.819Z,99119.75
2024-04-19T23:39:20.171Z,99127.41
2024-04-19T23:41:50.365Z,99118.88
2024-04-19T23:44:23.313Z,99111.22
2024-04-19T23:46:53.245Z,99112.97
2024-04-19T23:49:23.187Z,99097.63
2024-04-19T23:51:53.417Z,99112.06
2024-04-19T23:54:23.612Z,99113.78
2024-04-19T23:56:53.582Z,99111.22
2024-04-19T23:59:26.318Z,99109.53
